sensor_id;sensor_type;location;lat;lon;timestamp;P1;durP1;ratioP1;P2;durP2;ratioP2
48578;SDS011;34357;51.948;6.132;2024-01-10T00:00:29;10.47;;;4.13;;
48578;SDS011;34357;51.948;6.132;2024-01-10T00:02:56;6.63;;;3.53;;
48578;SDS011;34357;51.948;6.132;2024-01-10T00:05:23;8.47;;;4.13;;
48578;SDS011;34357;51.948;6.132;2024-01-10T00:07:52;10.03;;;4.30;;
48578;SDS011;34357;51.948;6.132;2024-01-10T00:10:18;7.93;;;4.10;;
48578;SDS011;34357;51.948;6.132;2024-01-10T00:12:47;8.73;;;4.30;;
48578;SDS011;34357;51.948;6.132;2024-01-10T00:15:15;7.75;;;4.22;;
48578;SDS011;34357;51.948;6.132;2024-01-10T00:17:42;6.83;;;3.60;;
48578;SDS011;34357;51.948;6.132;2024-01-10T00:20:09;7.97;;;4.10;;
48578;SDS011;34357;51.948;6.132;2024-01-10T00:22:36;7.43;;;4.40;;
48578;SDS011;34357;51.948;6.132;2024-01-10T00:25:02;8.50;;;3.73;;
48578;SDS011;34357;51.948;6.132;2024-01-10T00:27:33;7.40;;;3.87;;
48578;SDS011;34357;51.948;6.132;2024-01-10T00:29:59;7.17;;;3.90;;
48578;SDS011;34357;51.948;6.132;2024-01-10T00:32:25;7.93;;;4.17;;
48578;SDS011;34357;51.948;6.132;2024-01-10T00:34:52;7.97;;;4.17;;
48578;SDS011;34357;51.948;6.132;2024-01-10T00:37:17;7.87;;;4.43;;
48578;SDS011;34357;51.948;6.132;2024-01-10T00:39:43;6.47;;;3.70;;
48578;SDS011;34357;51.948;6.132;2024-01-10T00:42:09;7.13;;;4.10;;
48578;SDS011;34357;51.948;6.132;2024-01-10T00:44:35;8.70;;;4.40;;
48578;SDS011;34357;51.948;6.132;2024-01-10T00:47:01;7.27;;;3.63;;
48578;SDS011;34357;51.948;6.132;2024-01-10T00:49:27;9.03;;;4.83;;
48578;SDS011;34357;51.948;6.132;2024-01-10T00:51:54;7.27;;;4.40;;
48578;SDS011;34357;51.948;6.132;2024-01-10T00:54:20;7.87;;;4.40;;
48578;SDS011;34357;51.948;6.132;2024-01-10T00:56:46;9.23;;;4.40;;
48578;SDS011;34357;51.948;6.132;2024-01-10T00:59:15;9.13;;;4.47;;
48578;SDS011;34357;51.948;6.132;2024-01-10T01:01:41;7.80;;;4.17;;
48578;SDS011;34357;51.948;6.132;2024-01-10T01:04:07;7.07;;;4.10;;
48578;SDS011;34357;51.948;6.132;2024-01-10T01:06:32;8.37;;;4.57;;
48578;SDS011;34357;51.948;6.132;2024-01-10T01:08:58;6.40;;;3.73;;
48578;SDS011;34357;51.948;6.132;2024-01-10T01:11:24;9.07;;;4.10;;
48578;SDS011;34357;51.948;6.132;2024-01-10T01:13:50;10.63;;;5.57;;
48578;SDS011;34357;51.948;6.132;2024-01-10T01:16:16;10.63;;;5.20;;
48578;SDS011;34357;51.948;6.132;2024-01-10T01:18:42;12.47;;;6.27;;
48578;SDS011;34357;51.948;6.132;2024-01-10T01:21:13;8.80;;;4.40;;
48578;SDS011;34357;51.948;6.132;2024-01-10T01:23:39;8.03;;;4.77;;
48578;SDS011;34357;51.948;6.132;2024-01-10T01:26:05;8.23;;;4.53;;
48578;SDS011;34357;51.948;6.132;2024-01-10T01:28:31;6.80;;;4.40;;
48578;SDS011;34357;51.948;6.132;2024-01-10T01:30:57;7.63;;;4.20;;
48578;SDS011;34357;51.948;6.132;2024-01-10T01:33:23;6.90;;;3.90;;
48578;SDS011;34357;51.948;6.132;2024-01-10T01:35:48;8.73;;;4.47;;
48578;SDS011;34357;51.948;6.132;2024-01-10T01:38:14;7.53;;;4.43;;
48578;SDS011;34357;51.948;6.132;2024-01-10T01:40:40;6.63;;;4.30;;
48578;SDS011;34357;51.948;6.132;2024-01-10T01:43:22;7.77;;;4.53;;
48578;SDS011;34357;51.948;6.132;2024-01-10T01:45:52;7.80;;;4.23;;
48578;SDS011;34357;51.948;6.132;2024-01-10T01:48:22;10.93;;;5.33;;
48578;SDS011;34357;51.948;6.132;2024-01-10T01:50:55;8.70;;;4.47;;
48578;SDS011;34357;51.948;6.132;2024-01-10T01:53:24;9.43;;;4.77;;
48578;SDS011;34357;51.948;6.132;2024-01-10T01:55:52;9.73;;;4.57;;
48578;SDS011;34357;51.948;6.132;2024-01-10T01:58:18;9.60;;;4.57;;
48578;SDS011;34357;51.948;6.132;2024-01-10T02:00:45;10.20;;;4.70;;
48578;SDS011;34357;51.948;6.132;2024-01-10T02:03:12;9.17;;;4.40;;
48578;SDS011;34357;51.948;6.132;2024-01-10T02:05:38;9.87;;;4.33;;
48578;SDS011;34357;51.948;6.132;2024-01-10T02:08:04;9.43;;;5.10;;
48578;SDS011;34357;51.948;6.132;2024-01-10T02:10:30;10.77;;;5.17;;
48578;SDS011;34357;51.948;6.132;2024-01-10T02:12:56;9.17;;;4.17;;
48578;SDS011;34357;51.948;6.132;2024-01-10T02:15:22;10.03;;;4.20;;
48578;SDS011;34357;51.948;6.132;2024-01-10T02:17:49;8.00;;;4.57;;
48578;SDS011;34357;51.948;6.132;2024-01-10T02:20:15;8.30;;;4.77;;
48578;SDS011;34357;51.948;6.132;2024-01-10T02:22:46;7.43;;;4.32;;
48578;SDS011;34357;51.948;6.132;2024-01-10T02:25:12;8.70;;;4.70;;
48578;SDS011;34357;51.948;6.132;2024-01-10T02:27:39;7.93;;;4.63;;
48578;SDS011;34357;51.948;6.132;2024-01-10T02:30:06;12.67;;;4.97;;
48578;SDS011;34357;51.948;6.132;2024-01-10T02:32:34;8.67;;;4.77;;
48578;SDS011;34357;51.948;6.132;2024-01-10T02:35:00;9.30;;;4.50;;
48578;SDS011;34357;51.948;6.132;2024-01-10T02:37:26;12.20;;;5.13;;
48578;SDS011;34357;51.948;6.132;2024-01-10T02:39:52;9.67;;;4.47;;
48578;SDS011;34357;51.948;6.132;2024-01-10T02:42:18;8.23;;;4.50;;
48578;SDS011;34357;51.948;6.132;2024-01-10T02:44:44;7.90;;;4.57;;
48578;SDS011;34357;51.948;6.132;2024-01-10T02:47:10;9.93;;;4.87;;
48578;SDS011;34357;51.948;6.132;2024-01-10T02:49:37;8.77;;;4.60;;
48578;SDS011;34357;51.948;6.132;2024-01-10T02:52:03;8.27;;;4.47;;
48578;SDS011;34357;51.948;6.132;2024-01-10T02:54:32;9.60;;;4.43;;
48578;SDS011;34357;51.948;6.132;2024-01-10T02:56:58;9.00;;;4.50;;
48578;SDS011;34357;51.948;6.132;2024-01-10T02:59:24;9.63;;;4.83;;
48578;SDS011;34357;51.948;6.132;2024-01-10T03:01:52;9.20;;;4.80;;
48578;SDS011;34357;51.948;6.132;2024-01-10T03:04:18;8.77;;;5.07;;
48578;SDS011;34357;51.948;6.132;2024-01-10T03:06:44;10.97;;;4.87;;
48578;SDS011;34357;51.948;6.132;2024-01-10T03:09:10;9.40;;;4.77;;
48578;SDS011;34357;51.948;6.132;2024-01-10T03:11:36;9.13;;;4.90;;
48578;SDS011;34357;51.948;6.132;2024-01-10T03:14:03;9.43;;;5.03;;
48578;SDS011;34357;51.948;6.132;2024-01-10T03:16:32;8.80;;;5.03;;
48578;SDS011;34357;51.948;6.132;2024-01-10T03:18:58;10.17;;;4.47;;
48578;SDS011;34357;51.948;6.132;2024-01-10T03:21:25;9.10;;;5.13;;
48578;SDS011;34357;51.948;6.132;2024-01-10T03:23:55;9.20;;;5.00;;
48578;SDS011;34357;51.948;6.132;2024-01-10T03:26:22;8.73;;;4.53;;
48578;SDS011;34357;51.948;6.132;2024-01-10T03:28:48;9.33;;;5.23;;
48578;SDS011;34357;51.948;6.132;2024-01-10T03:31:15;10.43;;;4.93;;
48578;SDS011;34357;51.948;6.132;2024-01-10T03:33:41;9.47;;;4.90;;
48578;SDS011;34357;51.948;6.132;2024-01-10T03:36:08;9.73;;;5.20;;
48578;SDS011;34357;51.948;6.132;2024-01-10T03:38:37;10.37;;;4.73;;
48578;SDS011;34357;51.948;6.132;2024-01-10T03:41:03;6.60;;;4.27;;
48578;SDS011;34357;51.948;6.132;2024-01-10T03:43:29;9.83;;;4.93;;
48578;SDS011;34357;51.948;6.132;2024-01-10T03:45:54;7.43;;;4.20;;
48578;SDS011;34357;51.948;6.132;2024-01-10T03:48:20;7.97;;;5.43;;
48578;SDS011;34357;51.948;6.132;2024-01-10T03:50:49;11.17;;;4.93;;
48578;SDS011;34357;51.948;6.132;2024-01-10T03:53:15;9.13;;;4.90;;
48578;SDS011;34357;51.948;6.132;2024-01-10T03:55:41;9.77;;;5.40;;
48578;SDS011;34357;51.948;6.132;2024-01-10T03:58:07;8.77;;;5.20;;
48578;SDS011;34357;51.948;6.132;2024-01-10T04:00:33;12.20;;;5.27;;
48578;SDS011;34357;51.948;6.132;2024-01-10T04:02:59;8.33;;;4.73;;
48578;SDS011;34357;51.948;6.132;2024-01-10T04:05:25;10.47;;;5.03;;
48578;SDS011;34357;51.948;6.132;2024-01-10T04:07:51;14.07;;;5.60;;
48578;SDS011;34357;51.948;6.132;2024-01-10T04:10:20;8.40;;;5.30;;
48578;SDS011;34357;51.948;6.132;2024-01-10T04:12:46;9.97;;;5.40;;
48578;SDS011;34357;51.948;6.132;2024-01-10T04:15:12;7.87;;;5.13;;
48578;SDS011;34357;51.948;6.132;2024-01-10T04:17:37;8.43;;;5.00;;
48578;SDS011;34357;51.948;6.132;2024-01-10T04:20:03;12.20;;;5.77;;
48578;SDS011;34357;51.948;6.132;2024-01-10T04:22:30;11.97;;;5.67;;
48578;SDS011;34357;51.948;6.132;2024-01-10T04:25:00;9.97;;;5.50;;
48578;SDS011;34357;51.948;6.132;2024-01-10T04:27:27;8.60;;;5.27;;
48578;SDS011;34357;51.948;6.132;2024-01-10T04:29:53;11.47;;;5.80;;
48578;SDS011;34357;51.948;6.132;2024-01-10T04:32:19;10.67;;;5.63;;
48578;SDS011;34357;51.948;6.132;2024-01-10T04:34:45;11.50;;;5.60;;
48578;SDS011;34357;51.948;6.132;2024-01-10T04:37:11;9.27;;;5.47;;
48578;SDS011;34357;51.948;6.132;2024-01-10T04:39:37;11.57;;;5.50;;
48578;SDS011;34357;51.948;6.132;2024-01-10T04:42:03;10.00;;;5.40;;
48578;SDS011;34357;51.948;6.132;2024-01-10T04:44:30;10.57;;;5.47;;
48578;SDS011;34357;51.948;6.132;2024-01-10T04:46:56;11.23;;;6.13;;
48578;SDS011;34357;51.948;6.132;2024-01-10T04:49:22;14.43;;;6.03;;
48578;SDS011;34357;51.948;6.132;2024-01-10T04:51:48;11.47;;;5.60;;
48578;SDS011;34357;51.948;6.132;2024-01-10T04:54:15;8.73;;;5.03;;
48578;SDS011;34357;51.948;6.132;2024-01-10T04:56:41;10.97;;;4.90;;
48578;SDS011;34357;51.948;6.132;2024-01-10T04:59:07;10.83;;;5.87;;
48578;SDS011;34357;51.948;6.132;2024-01-10T05:01:33;12.67;;;5.77;;
48578;SDS011;34357;51.948;6.132;2024-01-10T05:03:59;9.67;;;5.10;;
48578;SDS011;34357;51.948;6.132;2024-01-10T05:06:25;9.57;;;5.53;;
48578;SDS011;34357;51.948;6.132;2024-01-10T05:08:52;9.90;;;5.30;;
48578;SDS011;34357;51.948;6.132;2024-01-10T05:11:18;10.67;;;5.93;;
48578;SDS011;34357;51.948;6.132;2024-01-10T05:13:44;8.10;;;4.73;;
48578;SDS011;34357;51.948;6.132;2024-01-10T05:16:10;10.60;;;5.30;;
48578;SDS011;34357;51.948;6.132;2024-01-10T05:18:35;8.53;;;5.53;;
48578;SDS011;34357;51.948;6.132;2024-01-10T05:21:02;10.40;;;5.37;;
48578;SDS011;34357;51.948;6.132;2024-01-10T05:23:29;11.43;;;6.03;;
48578;SDS011;34357;51.948;6.132;2024-01-10T05:25:55;15.40;;;6.60;;
48578;SDS011;34357;51.948;6.132;2024-01-10T05:28:20;11.03;;;5.93;;
48578;SDS011;34357;51.948;6.132;2024-01-10T05:30:46;10.27;;;5.77;;
48578;SDS011;34357;51.948;6.132;2024-01-10T05:33:12;12.73;;;5.90;;
48578;SDS011;34357;51.948;6.132;2024-01-10T05:35:38;18.63;;;8.10;;
48578;SDS011;34357;51.948;6.132;2024-01-10T05:38:04;21.20;;;9.07;;
48578;SDS011;34357;51.948;6.132;2024-01-10T05:40:30;25.77;;;9.43;;
48578;SDS011;34357;51.948;6.132;2024-01-10T05:42:57;10.67;;;6.00;;
48578;SDS011;34357;51.948;6.132;2024-01-10T05:45:24;12.90;;;6.33;;
48578;SDS011;34357;51.948;6.132;2024-01-10T05:47:51;11.40;;;5.33;;
48578;SDS011;34357;51.948;6.132;2024-01-10T05:50:17;12.73;;;5.53;;
48578;SDS011;34357;51.948;6.132;2024-01-10T05:52:45;11.00;;;5.90;;
48578;SDS011;34357;51.948;6.132;2024-01-10T05:55:14;12.73;;;5.87;;
48578;SDS011;34357;51.948;6.132;2024-01-10T05:57:39;10.70;;;5.90;;
48578;SDS011;34357;51.948;6.132;2024-01-10T06:00:06;11.33;;;6.47;;
48578;SDS011;34357;51.948;6.132;2024-01-10T06:02:38;12.33;;;6.63;;
48578;SDS011;34357;51.948;6.132;2024-01-10T06:05:05;12.43;;;6.10;;
48578;SDS011;34357;51.948;6.132;2024-01-10T06:07:31;12.57;;;5.97;;
48578;SDS011;34357;51.948;6.132;2024-01-10T06:09:57;14.20;;;6.67;;
48578;SDS011;34357;51.948;6.132;2024-01-10T06:12:23;11.67;;;6.20;;
48578;SDS011;34357;51.948;6.132;2024-01-10T06:14:50;13.40;;;7.27;;
48578;SDS011;34357;51.948;6.132;2024-01-10T06:17:16;11.20;;;6.20;;
48578;SDS011;34357;51.948;6.132;2024-01-10T06:19:42;10.70;;;6.23;;
48578;SDS011;34357;51.948;6.132;2024-01-10T06:22:08;13.10;;;6.30;;
48578;SDS011;34357;51.948;6.132;2024-01-10T06:24:33;11.87;;;6.40;;
48578;SDS011;34357;51.948;6.132;2024-01-10T06:26:59;12.73;;;6.97;;
48578;SDS011;34357;51.948;6.132;2024-01-10T06:29:25;14.10;;;7.40;;
48578;SDS011;34357;51.948;6.132;2024-01-10T06:31:54;11.70;;;6.50;;
48578;SDS011;34357;51.948;6.132;2024-01-10T06:34:21;13.63;;;6.67;;
48578;SDS011;34357;51.948;6.132;2024-01-10T06:36:47;14.93;;;7.40;;
48578;SDS011;34357;51.948;6.132;2024-01-10T06:39:13;14.80;;;7.00;;
48578;SDS011;34357;51.948;6.132;2024-01-10T06:41:40;13.10;;;6.97;;
48578;SDS011;34357;51.948;6.132;2024-01-10T06:44:05;15.47;;;7.43;;
48578;SDS011;34357;51.948;6.132;2024-01-10T06:46:31;13.80;;;7.83;;
48578;SDS011;34357;51.948;6.132;2024-01-10T06:48:58;15.30;;;8.57;;
48578;SDS011;34357;51.948;6.132;2024-01-10T06:51:24;14.80;;;7.87;;
48578;SDS011;34357;51.948;6.132;2024-01-10T06:53:52;13.43;;;7.67;;
48578;SDS011;34357;51.948;6.132;2024-01-10T06:56:18;17.73;;;8.33;;
48578;SDS011;34357;51.948;6.132;2024-01-10T06:58:47;13.00;;;7.87;;
48578;SDS011;34357;51.948;6.132;2024-01-10T07:01:13;19.33;;;8.80;;
48578;SDS011;34357;51.948;6.132;2024-01-10T07:03:48;17.83;;;8.20;;
48578;SDS011;34357;51.948;6.132;2024-01-10T07:06:14;13.73;;;7.97;;
48578;SDS011;34357;51.948;6.132;2024-01-10T07:08:40;17.27;;;8.50;;
48578;SDS011;34357;51.948;6.132;2024-01-10T07:11:12;20.83;;;9.33;;
48578;SDS011;34357;51.948;6.132;2024-01-10T07:13:38;17.83;;;8.60;;
48578;SDS011;34357;51.948;6.132;2024-01-10T07:16:05;16.10;;;9.30;;
48578;SDS011;34357;51.948;6.132;2024-01-10T07:18:31;15.93;;;9.17;;
48578;SDS011;34357;51.948;6.132;2024-01-10T07:20:57;17.43;;;9.37;;
48578;SDS011;34357;51.948;6.132;2024-01-10T07:23:23;17.90;;;9.50;;
48578;SDS011;34357;51.948;6.132;2024-01-10T07:25:49;17.70;;;8.73;;
48578;SDS011;34357;51.948;6.132;2024-01-10T07:28:15;18.77;;;8.90;;
48578;SDS011;34357;51.948;6.132;2024-01-10T07:30:42;15.97;;;8.90;;
48578;SDS011;34357;51.948;6.132;2024-01-10T07:33:09;18.93;;;9.37;;
48578;SDS011;34357;51.948;6.132;2024-01-10T07:35:36;20.27;;;9.80;;
48578;SDS011;34357;51.948;6.132;2024-01-10T07:38:03;16.40;;;9.33;;
48578;SDS011;34357;51.948;6.132;2024-01-10T07:40:32;16.70;;;9.50;;
48578;SDS011;34357;51.948;6.132;2024-01-10T07:42:59;20.03;;;9.13;;
48578;SDS011;34357;51.948;6.132;2024-01-10T07:45:25;17.23;;;9.27;;
48578;SDS011;34357;51.948;6.132;2024-01-10T07:47:51;21.47;;;10.73;;
48578;SDS011;34357;51.948;6.132;2024-01-10T07:50:17;19.77;;;10.63;;
48578;SDS011;34357;51.948;6.132;2024-01-10T07:52:44;28.90;;;13.03;;
48578;SDS011;34357;51.948;6.132;2024-01-10T07:55:14;21.63;;;10.77;;
48578;SDS011;34357;51.948;6.132;2024-01-10T07:57:41;25.97;;;11.27;;
48578;SDS011;34357;51.948;6.132;2024-01-10T08:00:07;22.03;;;10.53;;
48578;SDS011;34357;51.948;6.132;2024-01-10T08:02:37;21.40;;;11.47;;
48578;SDS011;34357;51.948;6.132;2024-01-10T08:05:04;21.23;;;11.00;;
48578;SDS011;34357;51.948;6.132;2024-01-10T08:07:31;20.30;;;11.40;;
48578;SDS011;34357;51.948;6.132;2024-01-10T08:09:59;21.97;;;11.30;;
48578;SDS011;34357;51.948;6.132;2024-01-10T08:12:25;21.00;;;11.37;;
48578;SDS011;34357;51.948;6.132;2024-01-10T08:14:51;23.23;;;11.10;;
48578;SDS011;34357;51.948;6.132;2024-01-10T08:17:17;23.13;;;11.23;;
48578;SDS011;34357;51.948;6.132;2024-01-10T08:19:42;20.27;;;10.93;;
48578;SDS011;34357;51.948;6.132;2024-01-10T08:22:08;18.93;;;10.03;;
48578;SDS011;34357;51.948;6.132;2024-01-10T08:24:34;20.23;;;11.27;;
48578;SDS011;34357;51.948;6.132;2024-01-10T08:27:00;23.20;;;11.20;;
48578;SDS011;34357;51.948;6.132;2024-01-10T08:29:26;21.30;;;11.10;;
48578;SDS011;34357;51.948;6.132;2024-01-10T08:31:57;19.90;;;10.97;;
48578;SDS011;34357;51.948;6.132;2024-01-10T08:34:23;22.10;;;11.13;;
48578;SDS011;34357;51.948;6.132;2024-01-10T08:36:49;18.93;;;10.67;;
48578;SDS011;34357;51.948;6.132;2024-01-10T08:39:16;23.00;;;10.83;;
48578;SDS011;34357;51.948;6.132;2024-01-10T08:41:42;19.60;;;10.80;;
48578;SDS011;34357;51.948;6.132;2024-01-10T08:44:12;19.87;;;11.17;;
48578;SDS011;34357;51.948;6.132;2024-01-10T08:46:38;22.83;;;12.00;;
48578;SDS011;34357;51.948;6.132;2024-01-10T08:49:04;18.07;;;10.50;;
48578;SDS011;34357;51.948;6.132;2024-01-10T08:51:30;22.83;;;11.27;;
48578;SDS011;34357;51.948;6.132;2024-01-10T08:53:56;21.77;;;11.63;;
48578;SDS011;34357;51.948;6.132;2024-01-10T08:56:22;22.57;;;11.80;;
48578;SDS011;34357;51.948;6.132;2024-01-10T08:58:49;22.67;;;11.27;;
48578;SDS011;34357;51.948;6.132;2024-01-10T09:01:15;20.97;;;10.97;;
48578;SDS011;34357;51.948;6.132;2024-01-10T09:03:41;22.47;;;11.30;;
48578;SDS011;34357;51.948;6.132;2024-01-10T09:06:06;24.80;;;12.13;;
48578;SDS011;34357;51.948;6.132;2024-01-10T09:08:33;23.30;;;11.47;;
48578;SDS011;34357;51.948;6.132;2024-01-10T09:11:02;25.53;;;12.33;;
48578;SDS011;34357;51.948;6.132;2024-01-10T09:13:28;27.43;;;13.03;;
48578;SDS011;34357;51.948;6.132;2024-01-10T09:15:54;21.87;;;11.70;;
48578;SDS011;34357;51.948;6.132;2024-01-10T09:18:20;24.70;;;12.37;;
48578;SDS011;34357;51.948;6.132;2024-01-10T09:20:46;25.60;;;12.90;;
48578;SDS011;34357;51.948;6.132;2024-01-10T09:23:13;29.13;;;12.90;;
48578;SDS011;34357;51.948;6.132;2024-01-10T09:25:39;25.80;;;12.70;;
48578;SDS011;34357;51.948;6.132;2024-01-10T09:28:05;26.03;;;12.93;;
48578;SDS011;34357;51.948;6.132;2024-01-10T09:30:31;33.97;;;14.77;;
48578;SDS011;34357;51.948;6.132;2024-01-10T09:32:57;24.67;;;12.23;;
48578;SDS011;34357;51.948;6.132;2024-01-10T09:35:24;26.30;;;11.90;;
48578;SDS011;34357;51.948;6.132;2024-01-10T09:37:53;33.33;;;13.63;;
48578;SDS011;34357;51.948;6.132;2024-01-10T09:40:19;28.47;;;13.80;;
48578;SDS011;34357;51.948;6.132;2024-01-10T09:42:52;28.73;;;13.27;;
48578;SDS011;34357;51.948;6.132;2024-01-10T09:45:19;27.90;;;14.63;;
48578;SDS011;34357;51.948;6.132;2024-01-10T09:47:55;24.43;;;11.87;;
48578;SDS011;34357;51.948;6.132;2024-01-10T09:50:22;24.20;;;12.27;;
48578;SDS011;34357;51.948;6.132;2024-01-10T09:52:51;23.00;;;12.83;;
48578;SDS011;34357;51.948;6.132;2024-01-10T09:55:20;21.83;;;12.10;;
48578;SDS011;34357;51.948;6.132;2024-01-10T09:57:47;22.53;;;11.50;;
48578;SDS011;34357;51.948;6.132;2024-01-10T10:00:14;20.83;;;11.00;;
48578;SDS011;34357;51.948;6.132;2024-01-10T10:02:47;21.10;;;11.27;;
48578;SDS011;34357;51.948;6.132;2024-01-10T10:05:16;25.03;;;11.47;;
48578;SDS011;34357;51.948;6.132;2024-01-10T10:07:45;26.07;;;11.70;;
48578;SDS011;34357;51.948;6.132;2024-01-10T10:10:12;21.23;;;10.67;;
48578;SDS011;34357;51.948;6.132;2024-01-10T10:12:43;22.97;;;11.83;;
48578;SDS011;34357;51.948;6.132;2024-01-10T10:15:22;20.90;;;10.50;;
48578;SDS011;34357;51.948;6.132;2024-01-10T10:17:51;26.23;;;11.83;;
48578;SDS011;34357;51.948;6.132;2024-01-10T10:20:22;21.90;;;10.70;;
48578;SDS011;34357;51.948;6.132;2024-01-10T10:23:02;24.17;;;11.93;;
48578;SDS011;34357;51.948;6.132;2024-01-10T10:25:30;23.17;;;12.00;;
48578;SDS011;34357;51.948;6.132;2024-01-10T10:28:01;21.90;;;11.20;;
48578;SDS011;34357;51.948;6.132;2024-01-10T10:30:28;20.93;;;10.73;;
48578;SDS011;34357;51.948;6.132;2024-01-10T10:32:56;23.23;;;11.57;;
48578;SDS011;34357;51.948;6.132;2024-01-10T10:35:22;23.10;;;11.50;;
48578;SDS011;34357;51.948;6.132;2024-01-10T10:37:48;21.30;;;10.33;;
48578;SDS011;34357;51.948;6.132;2024-01-10T10:40:16;23.23;;;11.40;;
48578;SDS011;34357;51.948;6.132;2024-01-10T10:42:52;24.80;;;11.07;;
48578;SDS011;34357;51.948;6.132;2024-01-10T10:45:20;21.40;;;10.50;;
48578;SDS011;34357;51.948;6.132;2024-01-10T10:47:53;19.23;;;10.63;;
48578;SDS011;34357;51.948;6.132;2024-01-10T10:50:23;22.53;;;10.90;;
48578;SDS011;34357;51.948;6.132;2024-01-10T10:52:52;19.80;;;10.90;;
48578;SDS011;34357;51.948;6.132;2024-01-10T10:55:23;24.67;;;11.15;;
48578;SDS011;34357;51.948;6.132;2024-01-10T10:57:51;21.97;;;10.53;;
48578;SDS011;34357;51.948;6.132;2024-01-10T11:00:22;20.53;;;10.80;;
48578;SDS011;34357;51.948;6.132;2024-01-10T11:02:55;19.40;;;10.10;;
48578;SDS011;34357;51.948;6.132;2024-01-10T11:05:22;18.30;;;10.07;;
48578;SDS011;34357;51.948;6.132;2024-01-10T11:07:49;20.57;;;10.43;;
48578;SDS011;34357;51.948;6.132;2024-01-10T11:23:59;23.13;;;11.30;;
48578;SDS011;34357;51.948;6.132;2024-01-10T11:26:30;20.40;;;10.30;;
48578;SDS011;34357;51.948;6.132;2024-01-10T11:28:58;23.53;;;10.83;;
48578;SDS011;34357;51.948;6.132;2024-01-10T11:31:29;21.83;;;11.17;;
48578;SDS011;34357;51.948;6.132;2024-01-10T11:33:56;20.77;;;10.53;;
48578;SDS011;34357;51.948;6.132;2024-01-10T11:36:23;21.97;;;10.63;;
48578;SDS011;34357;51.948;6.132;2024-01-10T11:46:49;20.70;;;10.77;;
48578;SDS011;34357;51.948;6.132;2024-01-10T11:49:18;21.93;;;10.70;;
48578;SDS011;34357;51.948;6.132;2024-01-10T11:51:45;19.10;;;10.27;;
48578;SDS011;34357;51.948;6.132;2024-01-10T11:54:58;20.50;;;10.93;;
48578;SDS011;34357;51.948;6.132;2024-01-10T11:57:02;17.93;;;10.17;;
48578;SDS011;34357;51.948;6.132;2024-01-10T11:59:32;21.37;;;11.10;;
48578;SDS011;34357;51.948;6.132;2024-01-10T12:01:59;24.10;;;11.00;;
48578;SDS011;34357;51.948;6.132;2024-01-10T12:04:25;19.50;;;9.97;;
48578;SDS011;34357;51.948;6.132;2024-01-10T12:06:55;20.27;;;10.20;;
48578;SDS011;34357;51.948;6.132;2024-01-10T12:09:22;21.67;;;10.63;;
48578;SDS011;34357;51.948;6.132;2024-01-10T12:11:49;17.83;;;9.80;;
48578;SDS011;34357;51.948;6.132;2024-01-10T12:14:15;18.77;;;10.57;;
48578;SDS011;34357;51.948;6.132;2024-01-10T12:16:42;20.70;;;10.23;;
48578;SDS011;34357;51.948;6.132;2024-01-10T12:19:08;20.00;;;10.60;;
48578;SDS011;34357;51.948;6.132;2024-01-10T12:21:34;19.73;;;9.93;;
48578;SDS011;34357;51.948;6.132;2024-01-10T12:24:00;21.70;;;10.77;;
48578;SDS011;34357;51.948;6.132;2024-01-10T12:26:28;21.23;;;9.90;;
48578;SDS011;34357;51.948;6.132;2024-01-10T12:28:56;18.97;;;9.73;;
48578;SDS011;34357;51.948;6.132;2024-01-10T12:31:24;21.33;;;9.83;;
48578;SDS011;34357;51.948;6.132;2024-01-10T12:33:52;21.87;;;10.67;;
48578;SDS011;34357;51.948;6.132;2024-01-10T12:36:20;19.50;;;10.03;;
48578;SDS011;34357;51.948;6.132;2024-01-10T12:38:46;20.77;;;9.73;;
48578;SDS011;34357;51.948;6.132;2024-01-10T12:41:14;20.20;;;10.30;;
48578;SDS011;34357;51.948;6.132;2024-01-10T12:43:40;18.10;;;10.03;;
48578;SDS011;34357;51.948;6.132;2024-01-10T12:48:34;19.83;;;9.83;;
48578;SDS011;34357;51.948;6.132;2024-01-10T12:51:06;17.20;;;10.43;;
48578;SDS011;34357;51.948;6.132;2024-01-10T12:53:39;20.13;;;11.00;;
48578;SDS011;34357;51.948;6.132;2024-01-10T12:56:07;17.53;;;10.10;;
48578;SDS011;34357;51.948;6.132;2024-01-10T12:58:35;19.67;;;10.20;;
48578;SDS011;34357;51.948;6.132;2024-01-10T13:01:02;20.40;;;9.33;;
48578;SDS011;34357;51.948;6.132;2024-01-10T13:03:31;18.23;;;9.37;;
48578;SDS011;34357;51.948;6.132;2024-01-10T13:05:57;19.20;;;9.80;;
48578;SDS011;34357;51.948;6.132;2024-01-10T13:08:23;19.70;;;9.60;;
48578;SDS011;34357;51.948;6.132;2024-01-10T13:10:49;19.97;;;9.43;;
48578;SDS011;34357;51.948;6.132;2024-01-10T13:13:15;19.13;;;9.60;;
48578;SDS011;34357;51.948;6.132;2024-01-10T13:15:46;19.83;;;10.40;;
48578;SDS011;34357;51.948;6.132;2024-01-10T13:18:13;21.20;;;10.97;;
48578;SDS011;34357;51.948;6.132;2024-01-10T13:20:46;19.03;;;10.47;;
48578;SDS011;34357;51.948;6.132;2024-01-10T13:23:12;17.03;;;8.53;;
48578;SDS011;34357;51.948;6.132;2024-01-10T13:25:40;21.33;;;10.80;;
48578;SDS011;34357;51.948;6.132;2024-01-10T13:28:06;17.23;;;9.70;;
48578;SDS011;34357;51.948;6.132;2024-01-10T13:30:32;20.37;;;10.27;;
48578;SDS011;34357;51.948;6.132;2024-01-10T13:32:58;20.77;;;10.47;;
48578;SDS011;34357;51.948;6.132;2024-01-10T13:35:24;21.10;;;11.13;;
48578;SDS011;34357;51.948;6.132;2024-01-10T13:37:50;21.00;;;10.40;;
48578;SDS011;34357;51.948;6.132;2024-01-10T13:40:16;18.83;;;9.77;;
48578;SDS011;34357;51.948;6.132;2024-01-10T13:42:42;18.57;;;10.13;;
48578;SDS011;34357;51.948;6.132;2024-01-10T13:45:09;19.03;;;10.30;;
48578;SDS011;34357;51.948;6.132;2024-01-10T13:47:39;21.33;;;10.33;;
48578;SDS011;34357;51.948;6.132;2024-01-10T13:50:08;19.93;;;9.70;;
48578;SDS011;34357;51.948;6.132;2024-01-10T13:52:35;24.33;;;10.10;;
48578;SDS011;34357;51.948;6.132;2024-01-10T13:55:01;21.47;;;10.87;;
48578;SDS011;34357;51.948;6.132;2024-01-10T13:57:31;20.50;;;9.77;;
48578;SDS011;34357;51.948;6.132;2024-01-10T13:59:58;19.07;;;10.23;;
48578;SDS011;34357;51.948;6.132;2024-01-10T14:02:24;20.43;;;9.73;;
48578;SDS011;34357;51.948;6.132;2024-01-10T14:04:51;21.60;;;9.23;;
48578;SDS011;34357;51.948;6.132;2024-01-10T14:07:19;18.93;;;9.60;;
48578;SDS011;34357;51.948;6.132;2024-01-10T14:09:48;16.97;;;9.87;;
48578;SDS011;34357;51.948;6.132;2024-01-10T14:12:14;18.83;;;10.00;;
48578;SDS011;34357;51.948;6.132;2024-01-10T14:14:40;24.60;;;10.40;;
48578;SDS011;34357;51.948;6.132;2024-01-10T14:17:05;21.83;;;11.00;;
48578;SDS011;34357;51.948;6.132;2024-01-10T14:19:31;20.67;;;10.13;;
48578;SDS011;34357;51.948;6.132;2024-01-10T14:21:58;19.10;;;9.77;;
48578;SDS011;34357;51.948;6.132;2024-01-10T14:24:24;24.53;;;10.47;;
48578;SDS011;34357;51.948;6.132;2024-01-10T14:26:53;20.67;;;10.53;;
48578;SDS011;34357;51.948;6.132;2024-01-10T14:29:19;26.70;;;12.17;;
48578;SDS011;34357;51.948;6.132;2024-01-10T14:31:50;19.57;;;9.53;;
48578;SDS011;34357;51.948;6.132;2024-01-10T14:34:16;18.57;;;10.10;;
48578;SDS011;34357;51.948;6.132;2024-01-10T14:36:42;21.40;;;9.73;;
48578;SDS011;34357;51.948;6.132;2024-01-10T14:39:08;21.20;;;10.93;;
48578;SDS011;34357;51.948;6.132;2024-01-10T14:41:33;20.07;;;10.77;;
48578;SDS011;34357;51.948;6.132;2024-01-10T14:44:00;21.70;;;10.73;;
48578;SDS011;34357;51.948;6.132;2024-01-10T14:46:26;18.97;;;10.20;;
48578;SDS011;34357;51.948;6.132;2024-01-10T14:48:53;22.27;;;9.90;;
48578;SDS011;34357;51.948;6.132;2024-01-10T14:51:19;22.30;;;10.40;;
48578;SDS011;34357;51.948;6.132;2024-01-10T14:53:45;20.47;;;10.20;;
48578;SDS011;34357;51.948;6.132;2024-01-10T14:56:11;18.00;;;9.77;;